Time;durP1;ratioP1;P1;durP2;ratioP2;P2;SDS_P1;SDS_P2;PMS_P1;PMS_P2;Temp;Humidity;BMP_temperature;BMP_pressure;BME280_temperature;BME280_humidity;BME280_pressure;Samples;Min_cycle;Max_cycle;Signal;HPM_P1;HPM_P2
2023/12/09 00:02:07;;;;;;;21.25;14.98;;;;;;;1.66;60.13;93810.03;4883689;29;20081;-78
2023/12/09 00:04:33;;;;;;;21.48;13.68;;;;;;;1.82;59.86;93828.41;4887730;29;20771;-78
2023/12/09 00:06:58;;;;;;;23.83;14.35;;;;;;;1.81;59.72;93837.34;4886188;29;20040;-77
2023/12/09 00:09:24;;;;;;;21.38;15.20;;;;;;;1.78;60.03;93838.63;4885290;29;20564;-77
2023/12/09 00:11:49;;;;;;;23.58;14.43;;;;;;;1.66;60.41;93835.44;4897253;29;20051;-79
2023/12/09 00:14:15;;;;;;;20.88;14.70;;;;;;;1.74;60.49;93834.16;4884549;29;20694;-78
2023/12/09 00:16:40;;;;;;;22.58;15.15;;;;;;;1.76;60.48;93837.31;4882729;29;20529;-75
2023/12/09 00:19:07;;;;;;;25.80;16.75;;;;;;;1.75;60.74;93833.91;4874193;29;20032;-77
2023/12/09 00:21:32;;;;;;;26.40;15.25;;;;;;;1.65;60.95;93820.75;4882756;29;20448;-80
2023/12/09 00:23:59;;;;;;;30.40;18.30;;;;;;;1.82;60.84;93839.69;4900223;29;20040;-78
2023/12/09 00:26:24;;;;;;;27.92;18.25;;;;;;;1.55;61.30;93839.88;4883000;29;20508;-76
2023/12/09 00:28:50;;;;;;;31.67;18.70;;;;;;;1.64;61.59;93835.69;4881262;29;20040;-77
2023/12/09 00:31:16;;;;;;;24.85;17.08;;;;;;;1.77;61.38;93836.25;4882121;29;20474;-79
2023/12/09 00:33:41;;;;;;;29.48;17.88;;;;;;;1.82;61.34;93831.03;4887028;29;20368;-79
2023/12/09 00:36:07;;;;;;;28.55;18.10;;;;;;;1.86;61.21;93832.91;4887319;29;20044;-77
2023/12/09 00:38:33;;;;;;;34.03;18.90;;;;;;;1.90;60.79;93831.38;4885348;29;20044;-77
2023/12/09 00:40:58;;;;;;;29.55;18.25;;;;;;;1.92;60.76;93828.47;4886105;29;20465;-77
2023/12/09 00:43:24;;;;;;;31.15;18.63;;;;;;;1.85;60.58;93838.41;4882710;29;20485;-76
2023/12/09 00:45:49;;;;;;;27.20;15.88;;;;;;;1.81;60.60;93829.47;4885743;29;20052;-77
2023/12/09 00:48:15;;;;;;;27.90;18.00;;;;;;;1.75;60.81;93833.91;4883382;29;20587;-78
2023/12/09 00:50:40;;;;;;;28.73;17.27;;;;;;;1.78;60.80;93833.38;4888834;29;20100;-77
2023/12/09 00:53:06;;;;;;;24.08;15.48;;;;;;;1.82;60.81;93831.03;4883784;29;20240;-75
2023/12/09 00:55:31;;;;;;;25.65;16.23;;;;;;;1.70;60.80;93820.00;4899538;29;20038;-76
2023/12/09 00:57:57;;;;;;;21.65;15.45;;;;;;;1.70;60.72;93820.00;4885107;29;20036;-76
2023/12/09 01:00:25;;;;;;;22.52;14.10;;;;;;;1.90;60.49;93836.59;4882347;29;20752;-77
2023/12/09 01:02:50;;;;;;;24.02;15.45;;;;;;;1.99;60.10;93836.88;4900253;29;20044;-78
2023/12/09 01:05:16;;;;;;;21.23;14.45;;;;;;;1.92;60.06;93828.47;4885985;29;20028;-76
2023/12/09 01:07:42;;;;;;;21.20;14.40;;;;;;;1.86;60.44;93848.63;4886419;29;20028;-76
2023/12/09 01:10:08;;;;;;;27.52;15.43;;;;;;;1.81;60.74;93847.84;4886430;29;20493;-76
2023/12/09 01:12:33;;;;;;;24.08;15.40;;;;;;;1.71;60.77;93821.56;4882908;29;20047;-77
2023/12/09 01:14:59;;;;;;;25.02;15.85;;;;;;;1.82;60.91;93855.41;4886563;29;20104;-76
2023/12/09 01:17:24;;;;;;;24.05;15.93;;;;;;;1.80;61.06;93849.66;4883940;29;20032;-76
2023/12/09 01:19:50;;;;;;;27.10;15.90;;;;;;;1.75;61.13;93846.22;4886565;29;20100;-77
2023/12/09 01:22:15;;;;;;;19.55;14.40;;;;;;;1.82;61.05;93838.91;4884441;29;20778;-78
2023/12/09 01:24:41;;;;;;;24.02;15.38;;;;;;;1.83;60.91;93851.75;4885983;29;20975;-76
2023/12/09 01:27:06;;;;;;;19.42;13.63;;;;;;;2.01;60.83;93855.78;4881002;29;20068;-76
2023/12/09 01:29:32;;;;;;;19.23;12.50;;;;;;;1.95;60.35;93841.09;4880430;29;20052;-77
2023/12/09 01:31:57;;;;;;;19.48;13.20;;;;;;;1.83;60.38;93819.50;4886013;29;20032;-78
2023/12/09 01:34:23;;;;;;;24.08;15.15;;;;;;;1.90;60.37;93830.56;4898109;29;20031;-78
2023/12/09 01:36:48;;;;;;;20.48;12.95;;;;;;;2.10;60.10;93843.75;4884968;29;20750;-77
2023/12/09 01:39:14;;;;;;;18.08;12.27;;;;;;;2.00;60.14;93839.25;4897602;29;20084;-77
2023/12/09 01:41:39;;;;;;;18.45;12.77;;;;;;;1.98;60.10;93833.47;4896808;29;20036;-77
2023/12/09 01:44:05;;;;;;;16.95;11.93;;;;;;;1.91;59.85;93821.66;4884422;29;20092;-77
2023/12/09 01:46:32;;;;;;;18.13;13.00;;;;;;;1.76;60.11;93813.72;4880864;29;20085;-77
2023/12/09 01:48:58;;;;;;;18.70;12.57;;;;;;;2.06;60.22;93832.16;4884031;29;20625;-76
2023/12/09 01:51:25;;;;;;;17.48;12.02;;;;;;;2.00;59.58;93814.88;4883309;29;20033;-77
2023/12/09 01:53:51;;;;;;;16.35;12.02;;;;;;;2.12;59.34;93843.47;4881526;29;20071;-77
2023/12/09 01:56:17;;;;;;;18.45;13.25;;;;;;;2.14;59.51;93836.94;4885232;29;20043;-78
2023/12/09 01:58:43;;;;;;;18.33;10.77;;;;;;;2.09;59.86;93827.22;4885073;29;20040;-76
2023/12/09 02:01:09;;;;;;;16.17;12.05;;;;;;;2.16;59.57;93823.56;4871644;29;20057;-77
2023/12/09 02:03:35;;;;;;;19.38;12.05;;;;;;;2.21;59.10;93823.53;4879154;29;20075;-77
2023/12/09 02:06:01;;;;;;;17.55;11.20;;;;;;;1.99;59.73;93795.72;4884822;29;20119;-78
2023/12/09 02:08:27;;;;;;;17.95;11.98;;;;;;;2.09;59.71;93797.56;4881781;29;20040;-78
2023/12/09 02:11:31;;;;;;;18.30;11.75;;;;;;;2.14;59.73;93818.56;4880531;29;20036;-76
2023/12/09 02:14:10;;;;;;;16.92;11.65;;;;;;;2.21;59.27;93810.41;4881381;29;20882;-76
2023/12/09 02:17:24;;;;;;;23.77;17.17;;;;;;;1.96;59.49;93813.81;4885817;29;20043;-76
2023/12/09 02:19:51;;;;;;;21.90;14.48;;;;;;;1.90;59.79;93817.47;4868994;29;20082;-78
2023/12/09 02:22:16;;;;;;;19.27;13.60;;;;;;;1.96;59.75;93824.31;4884127;29;20590;-78
2023/12/09 02:24:42;;;;;;;22.42;14.02;;;;;;;1.72;59.63;93802.19;4885022;29;20032;-77
2023/12/09 02:27:13;;;;;;;19.77;13.52;;;;;;;1.77;59.73;93817.91;4882858;29;20442;-77
2023/12/09 02:29:57;;;;;;;20.65;13.15;;;;;;;1.82;59.25;93817.91;4880830;29;20040;-78
2023/12/09 02:32:26;;;;;;;19.38;13.30;;;;;;;1.76;59.29;93813.72;4881201;29;20119;-76
2023/12/09 02:34:53;;;;;;;20.17;13.43;;;;;;;1.85;58.77;93827.91;4884317;29;20021;-77
2023/12/09 02:37:20;;;;;;;20.30;14.07;;;;;;;1.68;59.14;93815.78;4893444;29;20825;-76
2023/12/09 02:39:46;;;;;;;23.88;15.35;;;;;;;1.58;59.17;93805.25;4883969;29;20092;-77
2023/12/09 02:42:13;;;;;;;23.52;13.55;;;;;;;1.42;59.46;93785.31;4884881;29;20064;-77
2023/12/09 02:44:42;;;;;;;22.58;14.55;;;;;;;1.61;59.21;93817.09;4883031;29;20036;-77
2023/12/09 02:47:16;;;;;;;26.40;16.58;;;;;;;1.48;58.98;93791.31;4883980;29;20807;-78
2023/12/09 02:49:42;;;;;;;22.77;15.60;;;;;;;1.56;59.03;93811.81;4884892;29;20111;-77
2023/12/09 02:52:08;;;;;;;20.65;14.43;;;;;;;1.50;58.71;93816.25;4880054;29;20535;-77
2023/12/09 02:54:33;;;;;;;21.73;13.77;;;;;;;1.49;58.79;93817.28;4882746;29;20606;-77
2023/12/09 02:56:58;;;;;;;21.90;13.77;;;;;;;1.36;59.00;93796.81;4886227;29;20064;-76
2023/12/09 02:59:24;;;;;;;16.63;10.77;;;;;;;1.39;59.14;93819.06;4882828;29;20478;-76
2023/12/09 03:01:50;;;;;;;15.07;10.75;;;;;;;1.10;58.70;93768.91;4885228;29;20052;-76
2023/12/09 03:04:15;;;;;;;15.63;11.23;;;;;;;1.34;58.93;93821.66;4881275;29;20050;-77
2023/12/09 03:06:40;;;;;;;16.70;11.68;;;;;;;1.35;59.03;93804.91;4883398;29;20043;-77
2023/12/09 03:09:06;;;;;;;13.98;10.48;;;;;;;1.19;58.67;93783.09;4881545;29;20045;-77
2023/12/09 03:11:32;;;;;;;11.55;9.10;;;;;;;1.24;58.90;93804.06;4898299;29;20048;-76
2023/12/09 03:13:57;;;;;;;13.68;9.68;;;;;;;1.27;59.02;93808.03;4880416;29;20033;-77
2023/12/09 03:16:22;;;;;;;15.52;9.45;;;;;;;1.17;58.47;93785.19;4884886;29;20753;-76
2023/12/09 03:18:48;;;;;;;12.18;8.75;;;;;;;1.00;58.98;93789.81;4882034;29;20955;-77
2023/12/09 03:21:16;;;;;;;13.13;8.52;;;;;;;1.08;59.03;93797.97;4880991;29;20047;-76
2023/12/09 03:23:43;;;;;;;13.05;9.75;;;;;;;1.15;59.38;93814.25;4894557;29;20043;-77
2023/12/09 03:26:16;;;;;;;13.65;9.98;;;;;;;1.26;59.12;93817.72;4882108;29;20128;-77
2023/12/09 03:28:42;;;;;;;10.95;8.65;;;;;;;1.21;58.80;93797.53;4883542;29;20512;-76
2023/12/09 03:31:13;;;;;;;10.57;8.70;;;;;;;1.17;59.35;93816.63;4895415;29;20037;-77
2023/12/09 03:33:38;;;;;;;13.27;9.25;;;;;;;1.28;59.01;93815.63;4879886;29;20040;-77
2023/12/09 03:36:05;;;;;;;11.55;8.25;;;;;;;1.24;58.73;93811.94;4883991;29;20032;-77
2023/12/09 03:38:31;;;;;;;13.77;8.65;;;;;;;1.20;58.77;93800.38;4885768;29;20048;-77
2023/12/09 03:40:56;;;;;;;10.32;8.70;;;;;;;1.30;58.52;93824.03;4899719;29;20032;-78
2023/12/09 03:43:22;;;;;;;11.02;8.50;;;;;;;0.99;58.93;93796.88;4889041;29;20032;-77
2023/12/09 03:45:47;;;;;;;11.20;7.97;;;;;;;1.11;59.07;93794.84;4885205;29;20032;-76
2023/12/09 03:48:13;;;;;;;10.63;8.45;;;;;;;1.14;58.96;93817.13;4885325;29;20592;-78
2023/12/09 03:50:38;;;;;;;13.07;9.35;;;;;;;1.07;58.91;93816.56;4887118;29;20246;-76
2023/12/09 03:53:04;;;;;;;11.38;8.70;;;;;;;1.08;58.75;93808.44;4884651;29;20036;-77
2023/12/09 03:55:30;;;;;;;11.65;8.27;;;;;;;1.03;58.87;93820.75;4901113;29;20323;-76
2023/12/09 03:57:55;;;;;;;13.18;9.15;;;;;;;1.02;59.17;93816.53;4884254;29;20387;-78
2023/12/09 04:00:22;;;;;;;11.07;8.15;;;;;;;1.07;58.65;93816.56;4901506;29;20044;-76
2023/12/09 04:02:48;;;;;;;8.95;7.50;;;;;;;0.90;59.08;93826.41;4899151;29;20535;-78
2023/12/09 04:05:14;;;;;;;12.05;8.68;;;;;;;0.89;59.34;93827.47;4885531;29;20044;-75
2023/12/09 04:07:40;;;;;;;12.40;8.52;;;;;;;0.92;59.23;93825.13;4899591;29;20579;-77
2023/12/09 04:10:09;;;;;;;14.15;9.27;;;;;;;0.95;58.89;93823.81;4884019;29;20055;-76
2023/12/09 04:12:34;;;;;;;11.85;8.57;;;;;;;0.97;58.76;93821.75;4883830;29;20528;-76
2023/12/09 04:15:01;;;;;;;12.93;9.07;;;;;;;1.08;58.65;93828.63;4887162;29;20049;-76
2023/12/09 04:17:26;;;;;;;12.23;8.52;;;;;;;1.07;58.47;93834.91;4884236;29;20043;-76
2023/12/09 04:19:52;;;;;;;15.25;9.93;;;;;;;1.02;58.29;93824.41;4885407;29;20021;-77
2023/12/09 04:22:17;;;;;;;19.52;11.95;;;;;;;1.00;58.04;93827.25;4885574;29;20494;-77
2023/12/09 04:24:43;;;;;;;16.42;11.90;;;;;;;1.08;58.00;93831.25;4885670;29;20032;-77
2023/12/09 04:27:08;;;;;;;16.58;10.88;;;;;;;1.03;58.31;93842.50;4886140;29;20108;-77
2023/12/09 04:29:34;;;;;;;19.20;11.40;;;;;;;1.03;58.35;93837.25;4885698;29;20032;-76
2023/12/09 04:31:59;;;;;;;21.50;12.70;;;;;;;0.87;58.45;93826.91;4886636;29;20040;-77
2023/12/09 04:34:25;;;;;;;16.02;10.30;;;;;;;0.82;58.42;93808.56;4885223;29;20357;-78
2023/12/09 04:36:50;;;;;;;14.43;10.82;;;;;;;1.00;58.29;93837.75;4887339;29;20041;-76
2023/12/09 04:39:16;;;;;;;12.32;9.13;;;;;;;1.00;58.21;93834.31;4883512;29;20031;-76
2023/12/09 04:41:42;;;;;;;15.35;10.45;;;;;;;0.96;58.37;93835.88;4901211;29;20139;-76
2023/12/09 04:44:08;;;;;;;14.90;9.73;;;;;;;0.74;58.11;93818.44;4883366;29;20641;-78
2023/12/09 04:46:34;;;;;;;18.50;12.82;;;;;;;0.76;58.37;93821.63;4884993;29;20781;-77
2023/12/09 04:48:59;;;;;;;13.80;9.75;;;;;;;0.85;57.83;93827.16;4882463;29;20037;-77
2023/12/09 04:51:25;;;;;;;13.85;9.75;;;;;;;0.76;58.15;93842.56;4900305;29;20043;-77
2023/12/09 04:53:50;;;;;;;13.05;9.38;;;;;;;0.75;58.49;93850.66;4888269;29;20045;-77
2023/12/09 04:56:16;;;;;;;17.23;12.10;;;;;;;0.70;58.54;93854.03;4897059;29;20033;-76
2023/12/09 04:58:41;;;;;;;19.20;12.77;;;;;;;0.63;58.91;93844.81;4887540;29;20028;-76
2023/12/09 05:01:08;;;;;;;21.75;14.20;;;;;;;0.76;58.72;93858.25;4894005;29;20045;-78
2023/12/09 05:03:34;;;;;;;16.13;11.10;;;;;;;0.79;59.07;93865.59;4896450;29;20171;-77
2023/12/09 05:06:00;;;;;;;23.65;16.98;;;;;;;0.68;59.62;93857.94;4883053;29;20041;-76
2023/12/09 05:08:26;;;;;;;29.60;19.58;;;;;;;0.74;59.77;93860.34;4900818;29;20588;-78
2023/12/09 05:10:52;;;;;;;18.77;13.50;;;;;;;0.35;60.64;93830.19;4894975;29;20116;-77
2023/12/09 05:13:17;;;;;;;16.08;11.32;;;;;;;0.51;61.12;93844.97;4883978;29;20674;-76
2023/12/09 05:15:43;;;;;;;23.75;16.92;;;;;;;0.59;61.19;93844.53;4879992;29;20152;-78
2023/12/09 05:18:09;;;;;;;15.45;12.00;;;;;;;0.76;61.08;93867.94;4898394;29;20032;-78
2023/12/09 05:20:34;;;;;;;17.08;12.23;;;;;;;0.81;60.86;93860.13;4883563;29;20040;-77
2023/12/09 05:23:00;;;;;;;19.85;13.02;;;;;;;0.92;61.18;93874.09;4887052;29;20132;-76
2023/12/09 05:25:25;;;;;;;15.60;11.55;;;;;;;0.98;60.80;93886.97;4885497;29;20139;-76
2023/12/09 05:27:51;;;;;;;16.98;12.30;;;;;;;1.08;60.88;93881.03;4883294;29;20615;-77
2023/12/09 05:30:16;;;;;;;16.05;11.43;;;;;;;1.10;60.74;93884.16;4885948;29;20136;-76
2023/12/09 05:32:42;;;;;;;14.15;9.52;;;;;;;0.90;60.71;93844.72;4885528;29;20056;-76
2023/12/09 05:35:08;;;;;;;14.88;11.10;;;;;;;1.14;60.42;93877.38;4887734;29;20044;-77
2023/12/09 05:37:34;;;;;;;16.08;10.68;;;;;;;1.16;60.57;93876.09;4884372;29;20027;-76
2023/12/09 05:39:59;;;;;;;19.35;14.52;;;;;;;1.29;60.40;93880.09;4886052;29;20028;-75
2023/12/09 05:42:25;;;;;;;20.80;16.05;;;;;;;1.41;60.11;93893.78;4880002;29;20409;-76
2023/12/09 05:44:51;;;;;;;15.10;10.52;;;;;;;1.32;59.92;93892.69;4886379;29;20393;-76
2023/12/09 05:47:16;;;;;;;14.10;9.40;;;;;;;1.34;60.24;93885.34;4884985;29;20040;-77
2023/12/09 05:49:43;;;;;;;13.10;10.20;;;;;;;1.39;60.02;93889.84;4883753;29;20034;-76
2023/12/09 05:52:08;;;;;;;10.82;8.93;;;;;;;1.34;59.97;93885.34;4881382;29;20029;-76
2023/12/09 05:54:36;;;;;;;10.30;8.43;;;;;;;1.39;60.09;93874.91;4886200;29;20052;-76
2023/12/09 05:57:02;;;;;;;10.57;7.43;;;;;;;1.36;60.02;93888.53;4886692;29;20048;-77
2023/12/09 05:59:27;;;;;;;13.63;8.73;;;;;;;1.41;59.98;93893.78;4881168;29;20706;-75
2023/12/09 06:01:54;;;;;;;10.82;8.88;;;;;;;1.33;59.63;93889.00;4882822;29;20045;-76
2023/12/09 06:04:20;;;;;;;11.15;8.57;;;;;;;1.33;60.05;93888.22;4879783;29;20028;-77
2023/12/09 06:06:45;;;;;;;11.88;8.20;;;;;;;1.21;60.26;93877.94;4884522;29;20406;-77
2023/12/09 06:09:11;;;;;;;11.90;8.65;;;;;;;1.49;60.21;93909.03;4897087;29;20044;-77
2023/12/09 06:11:37;;;;;;;11.98;8.38;;;;;;;1.44;60.00;93900.34;4884833;29;20035;-77
2023/12/09 06:14:02;;;;;;;10.23;7.47;;;;;;;1.45;59.43;93892.22;4882893;29;20511;-77
2023/12/09 06:16:29;;;;;;;8.40;7.13;;;;;;;1.56;59.52;93909.59;4885234;29;20024;-77
2023/12/09 06:18:54;;;;;;;13.65;7.88;;;;;;;1.52;59.39;93905.88;4883097;29;20036;-76
2023/12/09 06:21:23;;;;;;;16.85;10.75;;;;;;;1.48;60.44;93910.06;4883958;29;20125;-77
2023/12/09 06:23:49;;;;;;;10.88;8.38;;;;;;;1.47;59.79;93911.09;4885840;29;20042;-76
2023/12/09 06:26:15;;;;;;;14.60;9.75;;;;;;;1.60;59.43;93912.50;4883446;29;20072;-77
2023/12/09 06:28:41;;;;;;;10.45;7.93;;;;;;;1.59;58.79;93908.28;4881077;29;20032;-77
2023/12/09 06:31:06;;;;;;;9.57;7.68;;;;;;;1.38;58.54;93880.38;4883096;29;20123;-75
2023/12/09 06:33:33;;;;;;;9.07;7.93;;;;;;;1.55;58.40;93897.53;4884804;29;20041;-77
2023/12/09 06:35:58;;;;;;;12.45;8.52;;;;;;;1.53;58.90;93899.59;4881247;29;20103;-76
2023/12/09 06:38:24;;;;;;;13.63;9.45;;;;;;;1.52;59.40;93898.03;4884966;29;20523;-77
2023/12/09 06:40:49;;;;;;;10.30;7.80;;;;;;;1.50;59.47;93894.88;4882683;29;20415;-77
2023/12/09 06:43:14;;;;;;;11.52;8.73;;;;;;;1.66;59.39;93920.16;4886736;29;20025;-76
2023/12/09 06:45:40;;;;;;;11.20;8.18;;;;;;;1.67;59.52;93919.06;4884170;29;20045;-78
2023/12/09 06:48:05;;;;;;;13.63;8.90;;;;;;;1.63;59.25;93912.78;4882026;29;20044;-77
2023/12/09 06:50:31;;;;;;;18.08;10.38;;;;;;;1.73;59.46;93926.97;4884204;29;20052;-77
2023/12/09 06:52:56;;;;;;;18.17;9.88;;;;;;;1.57;59.59;93908.53;4883289;29;20032;-77
2023/12/09 06:55:22;;;;;;;15.13;9.63;;;;;;;1.73;59.00;93929.59;4885900;29;20035;-76
2023/12/09 06:57:47;;;;;;;15.73;11.38;;;;;;;1.55;58.92;93897.53;4894668;29;20040;-76
2023/12/09 07:00:14;;;;;;;11.57;9.15;;;;;;;1.65;59.42;93915.16;4882017;29;20045;-77
2023/12/09 07:02:40;;;;;;;12.52;9.07;;;;;;;1.80;59.37;93940.66;4884266;29;20083;-76
2023/12/09 07:05:06;;;;;;;11.15;8.05;;;;;;;1.78;59.33;93927.00;4883087;29;20033;-76
2023/12/09 07:07:32;;;;;;;13.35;9.48;;;;;;;1.91;58.94;93929.97;4895618;29;20608;-76
2023/12/09 07:09:57;;;;;;;25.05;18.05;;;;;;;1.78;59.27;93932.25;4884716;29;20038;-76
2023/12/09 07:12:23;;;;;;;14.95;11.40;;;;;;;1.64;59.08;93901.25;4886536;29;20525;-76
2023/12/09 07:14:49;;;;;;;20.40;15.00;;;;;;;1.87;59.54;93946.47;4886500;29;20173;-77
2023/12/09 07:17:14;;;;;;;23.67;16.92;;;;;;;1.69;59.30;93908.34;4887470;29;20048;-76
2023/12/09 07:19:39;;;;;;;27.63;16.92;;;;;;;1.82;59.05;93928.84;4883519;29;20059;-78
2023/12/09 07:22:06;;;;;;;27.55;16.70;;;;;;;1.80;59.19;93945.91;4887164;29;20029;-77
2023/12/09 07:24:31;;;;;;;66.22;39.72;;;;;;;1.79;59.49;93929.38;4890837;29;20037;-76
2023/12/09 07:26:56;;;;;;;36.50;21.05;;;;;;;1.88;59.02;93940.19;4886762;29;20100;-77
2023/12/09 07:29:22;;;;;;;62.40;34.13;;;;;;;1.75;59.32;93948.50;4886003;29;20061;-76
2023/12/09 07:31:47;;;;;;;83.05;47.42;;;;;;;1.62;59.39;93924.28;4887308;29;20028;-77
2023/12/09 07:34:16;;;;;;;113.60;62.72;;;;;;;1.84;59.50;93957.44;4884201;29;20024;-78
2023/12/09 07:36:44;;;;;;;90.78;50.00;;;;;;;1.70;59.44;93951.09;4886263;29;20041;-77
2023/12/09 07:39:10;;;;;;;37.28;23.60;;;;;;;1.80;58.86;93959.00;4885431;29;20039;-79
2023/12/09 07:41:36;;;;;;;24.48;16.83;;;;;;;1.76;58.12;93948.25;4878946;29;20029;-76
2023/12/09 07:44:02;;;;;;;19.08;14.15;;;;;;;1.70;57.83;93951.09;4885471;29;20035;-77
2023/12/09 07:46:27;;;;;;;10.88;7.88;;;;;;;1.63;57.98;93938.97;4886323;29;20021;-77
2023/12/09 07:48:53;;;;;;;11.55;8.45;;;;;;;1.64;57.99;93937.16;4886770;29;20041;-76
2023/12/09 07:51:18;;;;;;;12.88;8.63;;;;;;;1.46;58.94;93942.81;4883620;29;20088;-76
2023/12/09 07:53:44;;;;;;;13.48;11.32;;;;;;;1.61;59.28;93951.56;4885190;29;20428;-76
2023/12/09 07:56:09;;;;;;;11.90;8.20;;;;;;;1.70;59.25;93949.25;4887310;29;20032;-78
2023/12/09 07:58:35;;;;;;;11.85;8.35;;;;;;;1.43;59.35;93914.47;4887915;29;20110;-77
2023/12/09 08:01:01;;;;;;;10.68;7.85;;;;;;;1.50;58.94;93946.50;4884269;29;20063;-76
2023/12/09 08:03:30;;;;;;;11.02;8.95;;;;;;;1.75;59.30;93970.25;4885365;29;20040;-77
2023/12/09 08:05:57;;;;;;;13.07;9.10;;;;;;;1.60;58.78;93957.84;4884700;29;20044;-78
2023/12/09 08:08:22;;;;;;;13.43;8.63;;;;;;;1.73;58.18;93971.53;4887294;29;20039;-77
2023/12/09 08:10:48;;;;;;;16.10;10.88;;;;;;;1.53;58.48;93952.03;4884818;29;20035;-77
2023/12/09 08:13:13;;;;;;;14.15;9.60;;;;;;;1.77;58.67;93967.38;4888805;29;20028;-76
2023/12/09 08:15:39;;;;;;;12.68;9.50;;;;;;;1.93;58.31;93979.56;4891898;29;20073;-76
2023/12/09 08:18:04;;;;;;;15.60;11.43;;;;;;;1.75;57.99;93974.72;4887594;29;20036;-78
2023/12/09 08:20:30;;;;;;;15.95;10.45;;;;;;;1.86;58.10;93987.63;4884711;29;20438;-78
2023/12/09 08:22:56;;;;;;;18.60;12.93;;;;;;;1.97;58.36;93988.47;4887174;29;20025;-78
2023/12/09 08:25:22;;;;;;;16.33;13.15;;;;;;;1.86;58.16;93978.97;4882179;29;20487;-76
2023/12/09 08:27:47;;;;;;;16.25;13.20;;;;;;;1.75;58.19;93974.72;4886076;29;20044;-77
2023/12/09 08:30:13;;;;;;;15.20;11.77;;;;;;;1.92;56.91;93959.59;4885186;29;20567;-77
2023/12/09 08:32:41;;;;;;;16.23;10.73;;;;;;;1.77;57.51;93977.84;4885159;29;20108;-75
2023/12/09 08:35:07;;;;;;;16.85;11.60;;;;;;;1.72;57.65;93980.47;4881216;29;20040;-77
2023/12/09 08:37:32;;;;;;;13.82;9.48;;;;;;;1.70;57.23;93977.31;4897831;29;20114;-78
2023/12/09 08:40:12;;;;;;;13.35;9.95;;;;;;;1.82;57.90;93980.50;4881531;29;20040;-76
2023/12/09 08:42:46;;;;;;;23.48;16.52;;;;;;;1.76;58.03;93950.06;4882969;29;20033;-77
2023/12/09 08:45:14;;;;;;;15.27;10.27;;;;;;;1.68;57.85;93983.59;4898388;29;20119;-77
2023/12/09 08:47:40;;;;;;;15.20;10.60;;;;;;;1.75;59.22;93982.56;4898624;29;20465;-77
2023/12/09 08:50:06;;;;;;;23.70;17.05;;;;;;;1.63;59.42;93988.00;4885728;29;20055;-76
2023/12/09 08:52:32;;;;;;;21.58;17.38;;;;;;;1.75;58.67;93974.72;4883762;29;20028;-77
2023/12/09 08:54:58;;;;;;;18.55;11.95;;;;;;;1.95;58.26;93980.09;4882423;29;20538;-77
2023/12/09 08:57:25;;;;;;;17.63;11.55;;;;;;;2.01;58.45;93977.22;4884251;29;20086;-78
2023/12/09 08:59:50;;;;;;;29.00;19.95;;;;;;;1.98;58.39;93984.81;4881744;29;20088;-78
2023/12/09 09:02:16;;;;;;;17.33;11.45;;;;;;;1.87;58.41;93967.44;4879828;29;20076;-77
2023/12/09 09:04:41;;;;;;;23.33;16.10;;;;;;;2.09;57.46;93981.22;4901066;29;20032;-78
2023/12/09 09:07:08;;;;;;;20.25;15.55;;;;;;;2.04;57.63;93978.56;4882236;29;20033;-78
2023/12/09 09:09:35;;;;;;;17.30;12.60;;;;;;;2.11;57.81;93981.72;4887011;29;20123;-76
2023/12/09 09:12:00;;;;;;;18.02;13.68;;;;;;;1.80;57.23;93972.13;4898697;29;20044;-76
2023/12/09 09:14:26;;;;;;;11.32;9.93;;;;;;;1.90;57.52;93982.69;4879517;29;20071;-76
2023/12/09 09:16:51;;;;;;;12.60;10.30;;;;;;;2.01;56.50;93981.72;4897863;29;20495;-76
2023/12/09 09:19:17;;;;;;;12.27;9.57;;;;;;;2.01;57.34;93973.84;4884710;29;20115;-78
2023/12/09 09:21:42;;;;;;;15.32;11.75;;;;;;;2.00;57.52;93956.50;4883240;29;20043;-77
2023/12/09 09:24:08;;;;;;;21.20;14.57;;;;;;;2.05;57.07;93952.09;4884019;29;20596;-78
2023/12/09 09:26:33;;;;;;;18.08;13.23;;;;;;;2.20;56.93;93966.31;4883434;29;20028;-78
2023/12/09 09:28:59;;;;;;;16.10;10.30;;;;;;;2.19;56.93;93952.38;4880258;29;20029;-76
2023/12/09 09:31:53;;;;;;;17.40;13.68;;;;;;;2.19;57.19;93955.00;4886579;29;20112;-76
2023/12/09 09:34:36;;;;;;;13.35;10.68;;;;;;;2.14;56.61;93946.34;4873246;29;20050;-77
2023/12/09 09:37:28;;;;;;;8.93;7.00;;;;;;;2.31;57.04;93950.31;4883001;29;20143;-77
2023/12/09 09:40:23;;;;;;;9.52;8.07;;;;;;;2.47;56.65;93938.81;4870054;29;20594;-77
2023/12/09 09:46:44;;;;;;;22.92;15.98;;;;;;;2.61;57.19;93935.69;4895313;29;20642;-77
2023/12/09 09:49:33;;;;;;;19.52;13.30;;;;;;;2.05;56.04;93906.69;4859467;29;20049;-77
2023/12/09 09:52:02;;;;;;;12.40;8.68;;;;;;;2.32;56.62;93933.53;4857870;29;20036;-77
2023/12/09 09:54:30;;;;;;;22.70;16.48;;;;;;;2.30;57.21;93925.13;4866732;29;20112;-78
2023/12/09 09:56:58;;;;;;;19.40;12.48;;;;;;;2.44;56.09;93930.69;4879204;29;20032;-77
2023/12/09 09:59:25;;;;;;;16.65;11.18;;;;;;;2.41;56.97;93931.97;4867909;29;20032;-75
2023/12/09 10:01:51;;;;;;;15.98;9.82;;;;;;;2.49;56.53;93922.81;4843346;29;21453;-76
2023/12/09 10:04:17;;;;;;;13.65;9.73;;;;;;;2.50;56.41;93940.13;4858799;29;20657;-76
2023/12/09 10:06:43;;;;;;;16.15;12.13;;;;;;;2.35;55.87;93940.13;4861871;29;20037;-75
2023/12/09 10:09:09;;;;;;;11.90;8.77;;;;;;;2.35;55.54;93950.63;4857527;29;20052;-77
2023/12/09 10:11:34;;;;;;;13.38;10.27;;;;;;;2.09;55.99;93944.47;4861207;29;20037;-76
2023/12/09 10:14:00;;;;;;;15.52;11.23;;;;;;;2.24;56.62;93947.16;4856192;29;20519;-76
2023/12/09 10:16:25;;;;;;;14.68;10.95;;;;;;;2.28;56.00;93937.72;4860346;29;20036;-76
2023/12/09 10:18:52;;;;;;;18.38;12.48;;;;;;;2.18;56.14;93931.66;4860397;29;20037;-75
2023/12/09 10:21:17;;;;;;;12.65;9.52;;;;;;;2.29;56.48;93923.56;4880907;29;20055;-77
2023/12/09 10:23:45;;;;;;;14.05;10.25;;;;;;;2.45;56.33;93927.78;4894788;29;20045;-75
2023/12/09 10:26:12;;;;;;;13.23;10.80;;;;;;;2.45;55.74;93930.41;4883816;29;20100;-76
2023/12/09 10:28:37;;;;;;;13.52;9.63;;;;;;;2.44;56.92;93926.22;4886010;29;20039;-76
2023/12/09 10:31:03;;;;;;;11.27;6.45;;;;;;;2.59;55.74;93933.34;4883280;29;20160;-77
2023/12/09 10:33:30;;;;;;;6.75;6.05;;;;;;;2.73;54.65;93936.25;4897118;29;20048;-77
2023/12/09 10:35:57;;;;;;;7.18;5.75;;;;;;;2.67;55.28;93939.91;4884839;29;20077;-77
2023/12/09 10:38:22;;;;;;;8.95;6.25;;;;;;;2.80;54.89;93936.75;4881321;29;20041;-77
2023/12/09 10:40:49;;;;;;;8.20;6.90;;;;;;;2.63;54.94;93913.38;4881156;29;20027;-76
2023/12/09 10:43:15;;;;;;;11.80;7.38;;;;;;;2.50;55.85;93898.91;4882768;29;20043;-76
2023/12/09 10:45:41;;;;;;;9.68;6.72;;;;;;;2.76;56.31;93917.31;4886576;29;20048;-77
2023/12/09 10:48:07;;;;;;;8.65;7.15;;;;;;;2.71;55.10;93917.31;4884852;29;20040;-76
2023/12/09 10:50:33;;;;;;;10.57;8.43;;;;;;;2.60;54.61;93910.50;4885358;29;20041;-74
2023/12/09 10:52:59;;;;;;;10.10;6.65;;;;;;;2.76;54.69;93901.56;4888248;29;20477;-76
2023/12/09 10:55:25;;;;;;;9.10;6.95;;;;;;;2.77;55.41;93897.91;4894586;29;20127;-77
2023/12/09 10:57:52;;;;;;;11.18;8.55;;;;;;;2.50;55.69;93880.53;4878120;29;20076;-77
2023/12/09 11:00:18;;;;;;;9.18;6.82;;;;;;;2.78;55.11;93910.00;4889940;29;20048;-76
2023/12/09 11:02:46;;;;;;;10.80;7.07;;;;;;;2.86;54.41;93910.25;4875500;29;20037;-77
2023/12/09 11:05:12;;;;;;;8.20;6.45;;;;;;;2.82;54.97;93906.56;4876847;29;20079;-77
2023/12/09 11:07:39;;;;;;;6.43;5.70;;;;;;;2.89;54.40;93914.97;4879196;29;20039;-77
2023/12/09 11:10:08;;;;;;;11.63;6.55;;;;;;;2.66;54.96;93896.31;4900505;29;20360;-75
2023/12/09 11:12:35;;;;;;;8.10;5.78;;;;;;;2.62;54.86;93890.00;4898496;29;20049;-76
2023/12/09 11:15:22;;;;;;;8.27;6.35;;;;;;;2.57;55.37;93903.91;4883675;29;20086;-76
2023/12/09 11:17:48;;;;;;;6.28;5.28;;;;;;;2.56;54.95;93899.72;4893654;29;21015;-77
2023/12/09 11:20:18;;;;;;;7.65;5.95;;;;;;;2.63;55.22;93912.59;4887381;29;20040;-77
2023/12/09 11:22:45;;;;;;;9.35;6.85;;;;;;;2.69;55.56;93890.56;4901121;29;20123;-78
2023/12/09 11:25:19;;;;;;;14.27;8.43;;;;;;;2.71;55.77;93885.81;4874309;29;20401;-79
2023/12/09 11:27:45;;;;;;;11.23;8.95;;;;;;;2.65;56.07;93881.59;4874792;29;20059;-80
2023/12/09 11:30:30;;;;;;;15.80;9.80;;;;;;;2.89;55.41;93895.81;4873241;29;20509;-79
2023/12/09 11:32:56;;;;;;;10.30;7.80;;;;;;;3.03;55.19;93891.59;4872367;29;20036;-80